W0ANA Weather Reports


time (UTC)temp
F
wind
direction
speed
knots
gust
knots
rain 1hr
in
rain 24hr
in
rain mn
in
humidity
%
barometer
mb
20260906173032 80 65 1.7 6.1 0.00 0.00 0.00 71 1016.5
20260906171529 80 68 1.7 5.2 0.00 0.00 0.00 71 1016.6
20260906170028 79 181 0.9 4.3 0.00 0.00 0.00 73 1016.8
20260906164535 78 110 0.9 4.3 0.00 0.00 0.00 76 1016.8
20260906163025 78 71 0.0 3.5 0.00 0.00 0.00 77 1017.0
20260906161519 76 75 0.9 4.3 0.00 0.00 0.00 80 1017.0
20260906160019 76 191 1.7 6.1 0.00 0.00 0.00 80 1017.5
20260906154516 75 98 0.9 6.1 0.00 0.00 0.00 81 1017.1
20260906153022 74 70 0.9 5.2 0.00 0.00 0.00 85 1017.4
20260906151510 73 146 2.6 7.0 0.00 0.00 0.00 85 1017.6
20260906150007 73 59 0.0 3.5 0.00 0.00 0.00 87 1017.2
20260906144505 73 116 0.9 4.3 0.00 0.00 0.00 87 1017.3
20260906143103 72 83 0.0 2.6 0.00 0.00 0.00 90 1017.2
20260906141604 71 113 0.9 4.3 0.00 0.00 0.00 91 1017.3
20260906140056 70 80 0.0 2.6 0.00 0.00 0.00 93 1017.3
20260906134602 70 83 0.0 1.7 0.00 0.00 0.00 95 1017.2
20260906133055 68 39 0.0 2.6 0.00 0.00 0.00 96 1016.9
20260906131553 68 71 0.0 0.9 0.00 0.00 0.00 97 1017.0
20260906130108 67 82 0.0 0.0 0.00 0.00 0.00 97 1016.9
20260906124550 67 85 0.0 0.0 0.00 0.00 0.00 97 1017.0
20260906123051 66 77 0.0 0.0 0.00 0.00 0.00 97 1017.0
20260906121558 66 77 0.0 0.0 0.00 0.00 0.00 97 1016.8
20260906120050 66 77 0.0 0.0 0.00 0.00 0.00 96 1016.7
20260906114544 66 77 0.0 0.0 0.00 0.00 0.00 96 1016.6
20260906113050 66 77 0.0 0.0 0.00 0.00 0.00 96 1016.6
20260906111541 66 76 0.0 0.0 0.00 0.00 0.00 96 1016.4
20260906110040 66 77 0.0 0.0 0.00 0.00 0.00 96 1016.3
20260906104538 67 76 0.0 0.0 0.00 0.00 0.00 95 1016.2
20260906103049 67 77 0.0 0.0 0.00 0.00 0.00 95 1016.2
20260906101535 67 77 0.0 0.0 0.00 0.00 0.00 95 1016.1
20260906100035 67 77 0.0 0.0 0.00 0.00 0.00 95 1016.0
20260906094531 68 82 0.0 0.0 0.00 0.00 0.00 95 1015.5
20260906091528 68 85 0.0 0.0 0.00 0.00 0.00 94 1015.5
20260906090029 68 85 0.0 0.0 0.00 0.00 0.00 94 1015.4
20260906084528 68 86 0.0 0.0 0.00 0.00 0.00 94 1015.4
20260906083028 68 84 0.0 0.0 0.00 0.00 0.00 93 1015.4
20260906081526 68 86 0.0 0.0 0.00 0.00 0.00 93 1015.5
20260906080028 69 85 0.0 0.0 0.00 0.00 0.00 92 1015.5
20260906074523 69 85 0.0 0.0 0.00 0.00 0.00 92 1015.5
20260906073021 69 86 0.0 0.0 0.00 0.00 0.00 92 1015.5
20260906071518 69 86 0.0 0.0 0.00 0.00 0.00 91 1015.7
20260906070018 70 86 0.0 0.0 0.00 0.00 0.00 91 1015.7
20260906064526 70 86 0.0 0.0 0.00 0.00 0.00 91 1015.9
20260906063016 69 86 0.0 0.0 0.00 0.00 0.00 91 1015.9
20260906061523 69 86 0.0 0.0 0.00 0.00 0.00 91 1015.7
20260906060014 69 188 0.0 0.0 0.00 0.00 0.00 90 1015.8
20260906054524 70 188 0.0 0.0 0.00 0.00 0.00 89 1015.8
20260906053010 70 188 0.0 0.0 0.00 0.00 0.00 88 1015.8
20260906051506 71 188 0.0 0.0 0.00 0.00 0.00 88 1015.9
20260906050004 71 188 0.0 0.0 0.00 0.00 0.00 86 1015.7
20260906044503 72 188 0.0 0.0 0.00 0.00 0.00 85 1015.8
20260906043013 72 188 0.0 0.0 0.00 0.00 0.00 85 1015.9
20260906041504 72 188 0.0 0.0 0.00 0.00 0.00 84 1016.0
20260906040002 73 193 0.0 0.0 0.00 0.00 0.00 83 1015.8
20260906034502 73 148 0.0 0.0 0.00 0.00 0.00 83 1015.9
20260906033001 73 84 0.0 0.0 0.00 0.00 0.00 82 1016.1
20260906031600 74 84 0.0 0.0 0.00 0.00 0.00 81 1016.1
20260906030100 74 84 0.0 0.0 0.00 0.00 0.00 80 1016.1
20260906024559 74 86 0.0 0.0 0.00 0.00 0.00 81 1016.2
20260906023107 74 86 0.0 0.0 0.00 0.00 0.00 81 1016.0
20260906021558 75 86 0.0 0.0 0.00 0.00 0.00 80 1015.8
20260906020100 75 86 0.0 0.0 0.00 0.00 0.00 78 1015.1
20260906014605 76 86 0.0 0.0 0.00 0.00 0.00 76 1014.8
20260906013058 77 86 0.0 0.9 0.00 0.00 0.00 74 1014.4
20260906011605 78 89 0.0 0.9 0.00 0.00 0.00 74 1014.2
20260906010056 78 88 0.0 1.7 0.00 0.00 0.00 73 1013.7
20260906004556 79 77 0.0 2.6 0.00 0.00 0.00 71 1013.5
20260906003055 80 78 0.0 1.7 0.00 0.00 0.00 69 1013.3
20260906001554 81 80 0.0 2.6 0.00 0.00 0.00 68 1012.9
20260906000054 81 104 0.0 2.6 0.00 0.00 0.00 66 1013.2
20260905234554 82 203 0.0 1.7 0.00 0.00 0.00 65 1013.3
20260905233057 83 71 0.0 2.6 0.00 0.00 0.00 65 1013.2
20260905231551 84 79 0.0 2.6 0.00 0.00 0.00 63 1013.2
20260905230051 85 275 0.0 1.7 0.00 0.00 0.00 63 1012.8
20260905224551 85 71 0.0 2.6 0.00 0.00 0.00 63 1012.7
20260905223051 86 58 0.0 3.5 0.00 0.00 0.00 61 1013.0
20260905221547 87 45 0.0 2.6 0.00 0.00 0.00 60 1013.2
20260905220046 87 63 0.0 0.9 0.00 0.00 0.00 61 1013.3
20260905214545 86 94 0.0 1.7 0.00 0.00 0.00 61 1013.1
20260905213044 87 63 0.0 4.3 0.00 0.00 0.00 60 1013.2
20260905211543 87 91 0.0 1.7 0.00 0.00 0.00 59 1013.6
20260905210041 88 79 0.0 0.9 0.00 0.00 0.00 61 1013.9
20260905204540 87 184 0.0 1.7 0.00 0.00 0.00 62 1014.2
20260905203037 86 360 0.0 1.7 0.00 0.00 0.00 63 1014.4
20260905201535 86 65 0.0 0.9 0.00 0.00 0.00 64 1014.8
20260905200035 85 66 0.0 0.9 0.00 0.00 0.00 65 1015.1
20260905194531 85 63 0.0 1.7 0.00 0.00 0.00 64 1015.2
20260905193029 84 40 0.0 0.9 0.00 0.00 0.00 68 1015.3
20260905191531 83 11 0.0 1.7 0.00 0.00 0.00 70 1015.4
20260905190029 81 75 0.0 3.5 0.00 0.00 0.00 71 1015.4
20260905184522 81 127 0.0 0.9 0.00 0.00 0.00 73 1015.5
20260905183015 80 180 0.9 3.5 0.00 0.00 0.00 73 1015.6
20260905181510 78 25 0.0 0.9 0.00 0.00 0.00 79 1015.7
20260905180008 77 91 0.0 2.6 0.00 0.00 0.00 80 1015.9
20260905174504 76 104 0.0 3.5 0.00 0.00 0.00 82 1015.9